createdAt,value
2023-03-20T00:01:38.611Z,102008.81
2023-03-20T00:06:38.300Z,102008.56
2023-03-20T00:11:38.980Z,101997.09
2023-03-20T00:16:35.745Z,101987.38
2023-03-20T00:21:28.116Z,101987.84
2023-03-20T00:26:25.204Z,102004.91
2023-03-20T00:31:31.891Z,102014.06
2023-03-20T00:36:28.385Z,102027.69
2023-03-20T00:41:34.625Z,102038.72
2023-03-20T00:46:27.064Z,102024.00
2023-03-20T00:51:20.083Z,102001.09
2023-03-20T00:56:30.335Z,102008.66
2023-03-20T01:01:26.329Z,102023.72
2023-03-20T01:06:21.900Z,101997.72
2023-03-20T01:11:19.418Z,101992.59
2023-03-20T01:16:25.357Z,101982.31
2023-03-20T01:21:20.420Z,101988.19
2023-03-20T01:26:28.261Z,101979.53
2023-03-20T01:31:20.155Z,101997.44
2023-03-20T01:36:13.511Z,102013.81
2023-03-20T01:41:10.649Z,102035.28
2023-03-20T01:46:07.857Z,102053.44
2023-03-20T01:50:59.504Z,102040.53
2023-03-20T01:55:55.987Z,102041.38
2023-03-20T02:00:51.846Z,102027.53
2023-03-20T02:05:46.976Z,102024.75
2023-03-20T02:10:40.059Z,102015.31
2023-03-20T02:16:02.631Z,102020.41
2023-03-20T02:21:26.470Z,102021.25
2023-03-20T02:26:43.324Z,102004.81
2023-03-20T02:31:47.124Z,101992.22
2023-03-20T02:36:52.584Z,101979.25
2023-03-20T02:41:50.546Z,101973.91
2023-03-20T02:46:50.767Z,101964.41
2023-03-20T02:52:00.852Z,101968.56
2023-03-20T02:57:05.265Z,101967.66
2023-03-20T03:02:01.946Z,101973.47
2023-03-20T03:06:56.553Z,101959.75
2023-03-20T03:11:51.914Z,101958.97
2023-03-20T03:16:48.893Z,101950.19
2023-03-20T03:21:45.371Z,101959.50
2023-03-20T03:26:46.800Z,101961.28
2023-03-20T03:31:38.372Z,101952.66
2023-03-20T03:36:39.560Z,101945.78
2023-03-20T03:41:36.773Z,101937.19
2023-03-20T03:46:38.176Z,101935.38
2023-03-20T03:51:38.269Z,101933.53
2023-03-20T03:56:36.951Z,101931.25
2023-03-20T04:01:30.517Z,101933.72
2023-03-20T04:06:21.093Z,101926.75
2023-03-20T04:11:19.373Z,101925.00
2023-03-20T04:16:13.977Z,101912.91
2023-03-20T04:21:13.657Z,101904.41
2023-03-20T04:26:09.224Z,101913.75
2023-03-20T04:31:07.411Z,101907.78
2023-03-20T04:36:22.903Z,101910.34
2023-03-20T04:41:15.009Z,101906.22
2023-03-20T04:46:11.834Z,101909.63
2023-03-20T04:51:02.216Z,101909.75
2023-03-20T04:56:04.918Z,101913.06
2023-03-20T05:01:01.406Z,101894.00
2023-03-20T05:05:57.705Z,101888.09
2023-03-20T05:10:49.300Z,101885.53
2023-03-20T05:16:14.587Z,101872.56
2023-03-20T05:21:27.697Z,101873.94
2023-03-20T05:26:32.651Z,101876.50
2023-03-20T05:31:42.476Z,101876.44
2023-03-20T06:43:41.198Z,101942.91
2023-03-20T06:48:33.960Z,101948.84
2023-03-20T06:53:32.360Z,101956.56
2023-03-20T06:58:36.771Z,101951.66
2023-03-20T07:03:31.833Z,101956.00
2023-03-20T07:08:25.302Z,101960.41
2023-03-20T07:13:17.054Z,101963.78
2023-03-20T07:18:07.825Z,101967.19
2023-03-20T07:23:09.872Z,101965.47
2023-03-20T07:28:00.487Z,101956.84
2023-03-20T07:32:54.488Z,101956.84
2023-03-20T07:37:56.059Z,101950.06
2023-03-20T07:42:52.784Z,101960.75
2023-03-20T07:48:07.551Z,101959.06
2023-03-20T07:52:58.461Z,101959.06
2023-03-20T07:57:54.158Z,101968.38
2023-03-20T08:02:45.036Z,101962.59
2023-03-20T08:07:37.415Z,101967.75
2023-03-20T08:12:28.107Z,101966.19
2023-03-20T08:17:22.293Z,101968.94
2023-03-20T08:22:17.877Z,101977.41
2023-03-20T08:27:08.485Z,101973.16
2023-03-20T08:31:58.830Z,101971.66
2023-03-20T08:36:54.012Z,101973.25
2023-03-20T08:41:46.051Z,101982.53
2023-03-20T08:46:40.404Z,101968.91
2023-03-20T08:51:31.293Z,101967.38
2023-03-20T08:56:23.863Z,101958.78
2023-03-20T09:01:16.941Z,101960.53
2023-03-20T09:06:16.474Z,101953.75
2023-03-20T09:11:08.410Z,101960.72
2023-03-20T09:16:03.171Z,101944.28
2023-03-20T09:20:56.819Z,101957.66
2023-03-20T09:25:46.646Z,101960.47
2023-03-20T09:30:39.121Z,101957.16
2023-03-20T09:35:33.872Z,101957.41
2023-03-20T09:40:28.168Z,101955.69
2023-03-20T09:45:22.188Z,101958.63
2023-03-20T09:50:25.713Z,101961.13
2023-03-20T09:55:19.736Z,101963.97
2023-03-20T10:00:14.345Z,101953.72
2023-03-20T10:05:06.982Z,101958.97
2023-03-20T10:09:56.847Z,101944.94
2023-03-20T10:15:02.302Z,101943.41
2023-03-20T10:19:54.335Z,101953.47
2023-03-20T10:24:51.298Z,101944.50
2023-03-20T10:30:08.451Z,101951.75
2023-03-20T10:35:07.102Z,101948.69
2023-03-20T10:40:14.335Z,101943.41
2023-03-20T10:45:12.775Z,101945.13
2023-03-20T10:50:22.111Z,101932.31
2023-03-20T10:55:23.749Z,101930.56
2023-03-20T11:00:26.282Z,101930.69
2023-03-20T11:05:32.263Z,101931.22
2023-03-20T11:10:24.905Z,101898.22
2023-03-20T11:15:27.325Z,101905.53
2023-03-20T11:20:19.233Z,101914.41
2023-03-20T11:25:34.518Z,101910.25
2023-03-20T11:30:32.649Z,101901.03
2023-03-20T11:35:31.548Z,101898.47
2023-03-20T11:40:27.801Z,101896.69
2023-03-20T11:45:23.497Z,101857.56
2023-03-20T11:50:34.488Z,101883.69
2023-03-20T11:55:38.382Z,101881.97
2023-03-20T12:00:41.382Z,101871.56
2023-03-20T12:05:43.716Z,101876.91
2023-03-20T12:10:41.012Z,101890.88
2023-03-20T12:15:37.372Z,101889.16
2023-03-20T12:20:46.452Z,101887.34
2023-03-20T12:25:47.322Z,101881.19
2023-03-20T12:30:59.273Z,101869.19
2023-03-20T12:35:59.897Z,101881.28
2023-03-20T12:40:57.058Z,101881.22
2023-03-20T12:46:04.701Z,101865.56
2023-03-20T12:51:13.767Z,101870.69
2023-03-20T12:56:24.750Z,101843.66
2023-03-20T13:01:24.319Z,101861.81
2023-03-20T13:06:34.063Z,101871.31
2023-03-20T13:11:37.032Z,101860.06
2023-03-20T13:16:40.169Z,101852.13
2023-03-20T13:21:51.117Z,101847.00
2023-03-20T13:26:57.047Z,101846.88
2023-03-20T13:32:02.919Z,101824.22
2023-03-20T13:37:23.697Z,101836.41
2023-03-20T13:42:19.955Z,101817.22
2023-03-20T13:47:20.235Z,101841.50
2023-03-20T13:52:23.524Z,101826.03
2023-03-20T13:57:38.042Z,101829.50
2023-03-20T14:02:46.026Z,101817.03
2023-03-20T14:07:49.974Z,101825.78
2023-03-20T14:12:39.854Z,101804.97
2023-03-20T14:17:36.272Z,101803.94
2023-03-20T14:22:36.878Z,101808.41
2023-03-20T14:27:43.803Z,101801.59
2023-03-20T14:32:41.154Z,101780.00
2023-03-20T14:37:54.737Z,101795.72
2023-03-20T14:42:58.422Z,101789.91
2023-03-20T14:48:04.210Z,101796.81
2023-03-20T14:53:09.137Z,101792.66
2023-03-20T14:58:55.276Z,101793.72
2023-03-20T15:04:07.619Z,101791.00
2023-03-20T15:09:19.413Z,101788.38
2023-03-20T15:14:28.166Z,101785.75
2023-03-20T15:19:24.169Z,101777.06
2023-03-20T15:24:24.753Z,101780.66
2023-03-20T15:29:27.908Z,101778.09
2023-03-20T15:34:29.122Z,101770.34
2023-03-20T15:39:24.627Z,101762.63
2023-03-20T15:44:39.646Z,101766.25
2023-03-20T15:49:35.446Z,101763.72
2023-03-20T15:54:26.111Z,101766.28
2023-03-20T15:59:19.844Z,101769.84
2023-03-20T16:04:18.017Z,101766.44
2023-03-20T16:09:17.613Z,101770.72
2023-03-20T16:14:26.648Z,101773.31
2023-03-20T16:19:20.609Z,101752.56
2023-03-20T16:24:14.139Z,101769.88
2023-03-20T16:29:07.448Z,101754.22
2023-03-20T16:34:06.949Z,101762.06
2023-03-20T16:39:09.432Z,101759.41
2023-03-20T16:44:09.582Z,101756.88
2023-03-20T16:49:11.545Z,101756.88
2023-03-20T16:54:06.226Z,101756.63
2023-03-20T16:58:58.536Z,101752.69
2023-03-20T17:04:02.015Z,101740.66
2023-03-20T17:09:04.439Z,101757.13
2023-03-20T17:13:58.585Z,101758.88
2023-03-20T17:19:05.515Z,101758.00
2023-03-20T17:23:57.291Z,101761.56
2023-03-20T17:28:49.078Z,101739.75
2023-03-20T17:33:46.403Z,101722.34
2023-03-20T17:38:39.012Z,101761.47
2023-03-20T17:43:36.954Z,101752.75
2023-03-20T17:48:28.420Z,101703.97
2023-03-20T17:53:34.747Z,101761.47
2023-03-20T17:58:27.711Z,101765.66
2023-03-20T18:03:40.846Z,101769.16
2023-03-20T18:08:34.001Z,101721.28
2023-03-20T18:13:31.090Z,101774.41
2023-03-20T18:18:25.695Z,101778.75
2023-03-20T18:23:20.919Z,101776.16
2023-03-20T18:28:26.018Z,101776.09
2023-03-20T18:33:17.247Z,101781.34
2023-03-20T18:38:08.480Z,101780.56
2023-03-20T18:42:59.745Z,101776.38
2023-03-20T18:47:55.317Z,101790.97
2023-03-20T18:52:51.719Z,101770.97
2023-03-20T18:57:49.338Z,101782.34
2023-03-20T19:02:40.951Z,101784.88
2023-03-20T19:07:38.621Z,101784.88
2023-03-20T19:12:32.521Z,101780.50
2023-03-20T19:17:31.808Z,101780.53
2023-03-20T19:22:29.557Z,101776.25
2023-03-20T19:27:26.826Z,101770.13
2023-03-20T19:32:19.299Z,101767.47
2023-03-20T19:37:16.561Z,101769.25
2023-03-20T19:42:45.297Z,101763.19
2023-03-20T19:47:27.121Z,101707.53
2023-03-20T19:52:28.626Z,101761.47
2023-03-20T19:57:24.281Z,101757.22
2023-03-20T20:02:20.187Z,101709.38
2023-03-20T20:08:00.726Z,101753.75
2023-03-20T20:12:31.381Z,101723.31
2023-03-20T20:17:24.412Z,101746.84
2023-03-20T20:22:26.504Z,101744.25
2023-03-20T20:27:21.137Z,101749.44
2023-03-20T20:32:18.067Z,101716.41
2023-03-20T20:42:27.753Z,101739.94
2023-03-20T20:47:26.176Z,101730.38
2023-03-20T20:52:29.661Z,101740.81
2023-03-20T20:57:42.060Z,101735.56
2023-03-20T21:02:37.589Z,101739.00
2023-03-20T21:07:32.776Z,101742.50
2023-03-20T21:12:38.406Z,101736.34
2023-03-20T21:17:33.668Z,101737.22
2023-03-20T21:22:31.435Z,101732.88
2023-03-20T21:27:31.554Z,101740.66
2023-03-20T21:32:24.727Z,101732.78
2023-03-20T21:42:39.857Z,101738.84
2023-03-20T21:48:30.114Z,101731.09
2023-03-20T22:03:43.987Z,101730.22
2023-03-20T22:09:30.800Z,101726.78
2023-03-20T22:14:49.342Z,101721.63
2023-03-20T22:19:56.052Z,101728.53
2023-03-20T22:24:59.408Z,101691.13
2023-03-20T22:30:12.611Z,101728.84
2023-03-20T22:35:33.186Z,101720.72
2023-03-20T22:50:42.928Z,101719.84
2023-03-20T22:55:40.156Z,101715.53
2023-03-20T23:00:44.695Z,101715.59
2023-03-20T23:05:38.805Z,101712.06
2023-03-20T23:10:38.588Z,101698.97
2023-03-20T23:15:43.457Z,101706.03
2023-03-20T23:20:37.608Z,101706.03
2023-03-20T23:25:39.282Z,101697.44
2023-03-20T23:30:59.760Z,101700.91
2023-03-20T23:36:14.068Z,101689.59
2023-03-20T23:41:19.148Z,101687.94
2023-03-20T23:46:18.602Z,101671.47
2023-03-20T23:51:09.596Z,101683.69
2023-03-20T23:56:02.308Z,101675.97
